West Annville, Pennsylvania
Current Conditions -  °F | °C
As of 8:12 AM on Tuesday 21 Oct 2014 (Local Time) from KMUI Reporting Station
Moderate Fog Moderate Fog  
Wind Chill: 46°   Ceiling: 500
Heat Index: 46°   Visibility: 0.25mi
Dew Point: 46°   Wind: 2mph
Humidity: 100%   Direction: 40°NE
Pressure: 29.87"   Gusts: NA
Location:  40.3819°N, 76.5718°W
Report Text: KMUI 211212Z AUTO 04002KT 1/4SM FG BKN005 BKN049 08/08 A2987 RMK AO2 CIG 005V050 BKN005 V SCT RVRNO $
Loading
Personal Weather Stations






























Interactive Weather Map New forecast layout! Learn more

10-Day Weather Forecast

Advertisements
Track Severe Weather on mobile